createdAt,value
2022-12-25T00:00:05.647Z,6.90
2022-12-25T00:02:33.005Z,5.40
2022-12-25T00:05:00.294Z,5.00
2022-12-25T00:07:27.525Z,4.10
2022-12-25T00:09:54.699Z,3.67
2022-12-25T00:12:22.457Z,3.20
2022-12-25T00:14:49.709Z,2.90
2022-12-25T00:17:17.069Z,3.00
2022-12-25T00:19:44.270Z,3.20
2022-12-25T00:22:11.525Z,3.20
2022-12-25T00:24:38.757Z,3.10
2022-12-25T00:27:05.999Z,3.60
2022-12-25T00:29:33.290Z,3.00
2022-12-25T00:32:00.508Z,3.10
2022-12-25T00:34:27.781Z,2.90
2022-12-25T00:36:54.969Z,3.03
2022-12-25T00:39:22.116Z,2.93
2022-12-25T00:42:07.812Z,2.80
2022-12-25T00:44:35.230Z,2.50
2022-12-25T00:47:02.653Z,2.20
2022-12-25T00:49:29.926Z,2.40
2022-12-25T00:51:57.331Z,2.17
2022-12-25T00:54:24.497Z,2.00
2022-12-25T00:56:51.758Z,1.90
2022-12-25T00:59:18.951Z,1.90
2022-12-25T01:01:46.418Z,2.17
2022-12-25T01:04:13.701Z,1.73
2022-12-25T01:06:41.079Z,2.07
2022-12-25T01:09:27.252Z,1.60
2022-12-25T01:11:54.435Z,1.70
2022-12-25T01:14:21.629Z,1.47
2022-12-25T01:16:48.879Z,1.80
2022-12-25T01:19:16.133Z,2.23
2022-12-25T01:21:43.306Z,1.87
2022-12-25T01:24:10.555Z,1.83
2022-12-25T01:26:37.749Z,2.03
2022-12-25T01:29:04.971Z,1.60
2022-12-25T01:31:32.176Z,1.90
2022-12-25T01:33:59.497Z,1.50
2022-12-25T01:36:27.317Z,1.50
2022-12-25T01:38:54.879Z,1.60
2022-12-25T01:41:24.645Z,1.70
2022-12-25T01:44:08.449Z,1.70
2022-12-25T01:46:36.102Z,1.60
2022-12-25T01:49:24.036Z,1.50
2022-12-25T01:51:56.473Z,1.70
2022-12-25T01:54:28.935Z,1.50
2022-12-25T01:56:59.919Z,1.50
2022-12-25T01:59:29.409Z,1.93
2022-12-25T02:01:57.511Z,1.63
2022-12-25T02:04:38.513Z,1.40
2022-12-25T02:07:05.812Z,1.50
2022-12-25T02:09:33.454Z,1.77
2022-12-25T02:12:00.878Z,1.37
2022-12-25T02:14:32.513Z,1.60
2022-12-25T02:17:13.208Z,1.60
2022-12-25T02:20:10.029Z,1.50
2022-12-25T02:22:52.326Z,1.40
2022-12-25T02:28:46.125Z,1.50
2022-12-25T02:31:18.646Z,1.63
2022-12-25T02:34:04.577Z,1.30
2022-12-25T02:36:53.731Z,1.60
2022-12-25T02:39:46.524Z,1.50
2022-12-25T02:42:22.908Z,1.30
2022-12-25T02:45:10.381Z,1.40
2022-12-25T02:47:56.873Z,1.20
2022-12-25T02:50:44.632Z,1.40
2022-12-25T02:53:30.916Z,1.40
2022-12-25T02:56:17.827Z,1.47
2022-12-25T02:59:05.003Z,1.83
2022-12-25T03:01:53.423Z,1.33
2022-12-25T03:04:41.727Z,1.40
2022-12-25T03:07:18.465Z,1.67
2022-12-25T03:10:18.792Z,1.30
2022-12-25T03:12:54.809Z,1.60
2022-12-25T03:15:41.286Z,1.57
2022-12-25T03:18:15.757Z,1.50
2022-12-25T03:21:01.870Z,1.37
2022-12-25T03:23:52.345Z,1.43
2022-12-25T03:26:38.353Z,1.40
2022-12-25T03:29:05.719Z,1.30
2022-12-25T03:31:55.324Z,1.33
2022-12-25T03:35:25.813Z,1.40
2022-12-25T03:38:20.932Z,1.40
2022-12-25T03:41:15.387Z,1.30
2022-12-25T03:44:31.577Z,1.30
2022-12-25T03:47:37.232Z,1.20
2022-12-25T03:50:40.336Z,1.30
2022-12-25T03:53:30.353Z,1.30
2022-12-25T03:56:17.841Z,1.30
2022-12-25T03:59:21.019Z,1.30
2022-12-25T04:02:10.620Z,1.40
2022-12-25T04:04:56.818Z,1.40
2022-12-25T04:07:42.758Z,1.33
2022-12-25T04:10:29.038Z,1.60
2022-12-25T04:13:15.035Z,1.60
2022-12-25T04:16:01.211Z,1.70
2022-12-25T04:18:46.917Z,1.80
2022-12-25T04:21:33.306Z,1.80
2022-12-25T04:24:19.258Z,2.10
2022-12-25T04:27:05.067Z,1.90
2022-12-25T04:29:51.153Z,2.30
2022-12-25T04:32:36.705Z,2.20
2022-12-25T04:35:22.607Z,1.90
2022-12-25T04:37:49.755Z,1.60
2022-12-25T04:40:17.068Z,2.30
2022-12-25T04:42:44.228Z,2.10
2022-12-25T04:45:11.865Z,2.03
2022-12-25T04:47:39.157Z,2.23
2022-12-25T04:50:07.359Z,2.00
2022-12-25T04:52:37.161Z,2.00
2022-12-25T04:55:05.944Z,1.90
2022-12-25T04:57:33.717Z,2.10
2022-12-25T05:00:00.883Z,1.80
2022-12-25T05:02:28.254Z,2.30
2022-12-25T05:04:55.559Z,2.17
2022-12-25T05:07:22.783Z,1.73
2022-12-25T05:09:49.997Z,2.27
2022-12-25T05:12:17.150Z,2.00
2022-12-25T05:14:44.370Z,2.30
2022-12-25T05:17:11.558Z,2.40
2022-12-25T05:19:38.743Z,2.60
2022-12-25T05:22:05.894Z,2.20
2022-12-25T05:24:33.148Z,2.00
2022-12-25T05:27:00.342Z,2.20
2022-12-25T05:29:27.607Z,1.80
2022-12-25T05:31:54.738Z,2.40
2022-12-25T05:34:22.060Z,2.30
2022-12-25T05:36:49.234Z,2.20
2022-12-25T05:39:16.394Z,2.30
2022-12-25T05:41:43.549Z,2.10
2022-12-25T05:44:10.926Z,2.30
2022-12-25T05:46:38.269Z,2.43
2022-12-25T05:49:05.658Z,2.17
2022-12-25T05:51:33.011Z,2.47
2022-12-25T05:54:00.320Z,2.57
2022-12-25T05:56:27.649Z,2.10
2022-12-25T05:58:54.960Z,2.30
2022-12-25T06:01:24.721Z,2.53
2022-12-25T06:03:52.356Z,2.40
2022-12-25T06:06:19.890Z,2.43
2022-12-25T06:08:47.164Z,2.37
2022-12-25T06:11:15.583Z,2.57
2022-12-25T06:13:43.385Z,2.47
2022-12-25T06:16:12.315Z,2.30
2022-12-25T06:18:43.288Z,2.10
2022-12-25T06:21:12.724Z,2.50
2022-12-25T06:23:40.411Z,2.40
2022-12-25T06:26:09.991Z,2.40
2022-12-25T06:28:37.618Z,2.10
2022-12-25T06:31:16.834Z,2.40
2022-12-25T06:33:44.586Z,2.63
2022-12-25T06:36:17.843Z,2.90
2022-12-25T06:38:45.048Z,2.87
2022-12-25T06:41:16.086Z,2.40
2022-12-25T06:43:43.960Z,2.33
2022-12-25T06:46:12.310Z,2.47
2022-12-25T06:48:41.264Z,2.50
2022-12-25T06:51:08.402Z,2.37
2022-12-25T06:53:40.243Z,2.77
2022-12-25T06:56:16.298Z,2.30
2022-12-25T06:58:48.690Z,2.70
2022-12-25T07:01:24.938Z,2.83
2022-12-25T07:03:56.321Z,2.60
2022-12-25T07:06:23.879Z,2.60
2022-12-25T07:08:51.070Z,2.80
2022-12-25T07:11:18.505Z,2.70
2022-12-25T07:13:45.708Z,3.00
2022-12-25T07:16:13.514Z,2.80
2022-12-25T07:18:41.618Z,2.30
2022-12-25T07:21:17.155Z,2.60
2022-12-25T07:23:45.885Z,2.53
2022-12-25T07:26:13.768Z,2.40
2022-12-25T07:28:42.613Z,2.30
2022-12-25T07:31:15.267Z,2.60
2022-12-25T07:33:43.710Z,2.60
2022-12-25T07:36:12.898Z,2.47
2022-12-25T07:38:42.316Z,2.20
2022-12-25T07:41:11.581Z,2.10
2022-12-25T07:43:38.948Z,2.30
2022-12-25T07:46:06.247Z,2.50
2022-12-25T07:48:34.214Z,2.47
2022-12-25T07:51:07.035Z,2.33
2022-12-25T07:53:37.074Z,2.53
2022-12-25T07:56:18.595Z,2.40
2022-12-25T07:58:46.936Z,2.50
2022-12-25T08:01:18.060Z,2.10
2022-12-25T08:03:56.149Z,2.07
2022-12-25T08:06:26.750Z,2.33
2022-12-25T08:08:53.922Z,2.17
2022-12-25T08:11:21.096Z,2.30
2022-12-25T08:13:48.317Z,2.20
2022-12-25T08:16:15.578Z,2.40
2022-12-25T08:18:43.586Z,2.13
2022-12-25T08:21:13.403Z,2.60
2022-12-25T08:23:42.808Z,2.30
2022-12-25T08:26:16.599Z,2.27
2022-12-25T08:28:43.796Z,2.27
2022-12-25T08:31:33.234Z,1.80
2022-12-25T08:34:03.104Z,1.60
2022-12-25T08:36:30.820Z,1.83
2022-12-25T08:39:02.665Z,1.87
2022-12-25T08:41:31.220Z,1.50
2022-12-25T08:43:58.590Z,1.70
2022-12-25T08:46:25.929Z,1.67
2022-12-25T08:48:53.422Z,1.60
2022-12-25T08:51:22.881Z,1.37
2022-12-25T08:53:51.549Z,1.60
2022-12-25T08:56:19.386Z,1.50
2022-12-25T08:58:46.820Z,1.40
2022-12-25T09:01:14.661Z,1.70
2022-12-25T09:03:42.888Z,1.63
2022-12-25T09:06:13.034Z,1.67
2022-12-25T09:08:48.123Z,1.60
2022-12-25T09:11:17.475Z,1.53
2022-12-25T09:13:44.667Z,1.53
2022-12-25T09:16:14.843Z,1.50
2022-12-25T09:18:42.154Z,1.43
2022-12-25T09:21:12.267Z,1.30
2022-12-25T09:23:39.728Z,1.47
2022-12-25T09:26:08.824Z,1.30
2022-12-25T09:28:36.119Z,1.33
2022-12-25T09:31:03.556Z,1.50
2022-12-25T09:33:30.851Z,1.50
2022-12-25T09:36:04.297Z,1.83
2022-12-25T09:38:32.211Z,1.60
2022-12-25T09:41:11.324Z,1.67
2022-12-25T09:43:45.156Z,2.57
2022-12-25T09:46:17.055Z,1.40
2022-12-25T09:48:56.995Z,1.37
2022-12-25T09:51:25.501Z,1.30
2022-12-25T09:54:03.315Z,1.77
2022-12-25T09:56:32.024Z,1.80
2022-12-25T09:58:59.275Z,1.20
2022-12-25T10:01:50.612Z,2.00
2022-12-25T10:04:40.640Z,3.90
2022-12-25T10:07:46.628Z,2.13
2022-12-25T10:10:39.086Z,1.70
2022-12-25T10:13:08.825Z,1.70
2022-12-25T10:16:19.960Z,1.43
2022-12-25T10:19:20.572Z,1.53
2022-12-25T10:21:51.330Z,1.40
2022-12-25T10:24:40.772Z,1.30
2022-12-25T10:27:19.612Z,1.40
2022-12-25T10:29:53.336Z,2.23
2022-12-25T10:32:21.020Z,1.27
2022-12-25T10:34:49.061Z,1.63
2022-12-25T10:37:17.246Z,1.53
2022-12-25T10:39:47.014Z,2.27
2022-12-25T10:42:28.157Z,1.53
2022-12-25T10:45:05.235Z,3.60
2022-12-25T10:47:37.906Z,6.27
2022-12-25T10:50:25.813Z,2.57
2022-12-25T10:53:02.020Z,1.97
2022-12-25T10:55:29.918Z,1.63
2022-12-25T10:57:58.463Z,1.70
2022-12-25T11:00:31.160Z,1.67
2022-12-25T11:02:59.189Z,1.60
2022-12-25T11:05:29.775Z,1.73
2022-12-25T11:07:59.575Z,2.60
2022-12-25T11:10:44.033Z,2.67
2022-12-25T11:13:21.656Z,1.90
2022-12-25T11:15:49.770Z,2.80
2022-12-25T11:18:22.904Z,2.10
2022-12-25T11:20:59.157Z,6.87
2022-12-25T11:23:29.187Z,2.00
2022-12-25T11:26:05.035Z,3.40
2022-12-25T11:28:35.499Z,1.67
2022-12-25T11:31:14.045Z,2.10
2022-12-25T11:33:53.272Z,1.80
2022-12-25T11:36:46.529Z,1.80
2022-12-25T11:39:40.678Z,1.70
2022-12-25T11:42:33.666Z,1.50
2022-12-25T11:45:00.783Z,1.80
2022-12-25T11:47:54.488Z,1.83
2022-12-25T11:50:46.511Z,1.63
2022-12-25T11:53:18.600Z,1.70
2022-12-25T11:55:57.039Z,1.50
2022-12-25T11:58:30.468Z,1.67
2022-12-25T12:01:00.672Z,1.77
2022-12-25T12:03:37.202Z,1.77
2022-12-25T12:06:10.307Z,2.30
2022-12-25T12:08:38.038Z,1.77
2022-12-25T12:11:28.453Z,1.70
2022-12-25T12:14:15.690Z,1.63
2022-12-25T12:16:43.386Z,2.33
2022-12-25T12:19:24.978Z,1.70
2022-12-25T12:21:54.237Z,2.10
2022-12-25T12:24:23.557Z,1.63
2022-12-25T12:27:10.701Z,2.17
2022-12-25T12:29:44.097Z,2.33
2022-12-25T12:32:26.291Z,1.63
2022-12-25T12:34:54.156Z,1.70
2022-12-25T12:37:29.530Z,2.97
2022-12-25T12:39:57.092Z,1.57
2022-12-25T12:42:40.326Z,2.80
2022-12-25T12:45:18.933Z,2.20
2022-12-25T12:47:49.655Z,2.37
2022-12-25T12:50:42.411Z,2.37
2022-12-25T12:53:21.660Z,3.17
2022-12-25T12:55:49.888Z,1.83
2022-12-25T12:58:35.652Z,2.20
2022-12-25T13:01:13.281Z,2.13
2022-12-25T13:04:05.599Z,1.90
2022-12-25T13:06:54.459Z,20.10
2022-12-25T13:09:29.782Z,2.10
2022-12-25T13:11:57.243Z,2.20
2022-12-25T13:14:25.243Z,3.23
2022-12-25T13:16:54.237Z,2.00
2022-12-25T13:19:28.178Z,1.93
2022-12-25T13:22:01.032Z,2.00
2022-12-25T13:24:36.681Z,1.90
2022-12-25T13:27:23.973Z,1.60
2022-12-25T13:29:51.249Z,1.87
2022-12-25T13:32:37.793Z,1.90
2022-12-25T13:35:11.545Z,1.90
2022-12-25T13:37:38.893Z,3.60
2022-12-25T13:40:08.380Z,1.87
2022-12-25T13:42:37.591Z,6.07
2022-12-25T13:45:21.529Z,8.63
2022-12-25T13:47:55.252Z,5.73
2022-12-25T13:50:27.998Z,8.93
2022-12-25T13:52:57.379Z,9.67
2022-12-25T13:55:29.732Z,5.90
2022-12-25T13:58:05.284Z,4.47
2022-12-25T14:00:50.171Z,10.33
2022-12-25T14:03:46.167Z,16.83
2022-12-25T14:06:21.037Z,11.03
2022-12-25T14:08:48.949Z,6.73
2022-12-25T14:11:20.645Z,3.73
2022-12-25T14:13:50.892Z,4.10
2022-12-25T14:16:20.355Z,4.43
2022-12-25T14:18:53.425Z,3.37
2022-12-25T14:21:25.758Z,5.43
2022-12-25T14:23:53.152Z,2.57
2022-12-25T14:26:29.395Z,4.43
2022-12-25T14:29:05.597Z,2.57
2022-12-25T14:31:33.633Z,3.00
2022-12-25T14:34:03.177Z,2.10
2022-12-25T14:36:31.959Z,2.20
2022-12-25T14:39:04.810Z,2.73
2022-12-25T14:41:39.273Z,4.47
2022-12-25T14:44:29.213Z,2.60
2022-12-25T14:47:18.920Z,2.73
2022-12-25T14:49:46.674Z,3.70
2022-12-25T14:52:19.399Z,2.33
2022-12-25T14:55:07.742Z,3.90
2022-12-25T14:57:39.058Z,4.67
2022-12-25T15:00:22.208Z,4.73
2022-12-25T15:02:51.294Z,4.50
2022-12-25T15:05:27.796Z,3.00
2022-12-25T15:08:04.499Z,2.43
2022-12-25T15:10:59.475Z,9.97
2022-12-25T15:13:19.541Z,14.10
2022-12-25T15:16:01.817Z,7.47
2022-12-25T15:18:35.300Z,4.63
2022-12-25T15:21:02.890Z,2.93
2022-12-25T15:23:30.125Z,2.60
2022-12-25T15:25:57.272Z,2.37
2022-12-25T15:28:24.787Z,2.30
2022-12-25T15:30:52.006Z,2.00
2022-12-25T15:33:19.515Z,2.03
2022-12-25T15:35:46.739Z,2.13
2022-12-25T15:38:13.996Z,2.20
2022-12-25T15:40:42.440Z,2.20
2022-12-25T15:43:39.259Z,2.50
2022-12-25T15:46:01.417Z,3.20
2022-12-25T15:48:28.645Z,2.60
2022-12-25T15:50:55.811Z,2.60
2022-12-25T15:53:23.098Z,2.73
2022-12-25T15:55:50.328Z,2.70
2022-12-25T15:58:17.468Z,2.50
2022-12-25T16:00:44.634Z,3.00
2022-12-25T16:03:11.988Z,4.63
2022-12-25T16:05:39.322Z,2.97
2022-12-25T16:08:06.528Z,3.10
2022-12-25T16:10:38.659Z,3.60
2022-12-25T16:13:06.385Z,4.00
2022-12-25T16:15:33.592Z,3.60
2022-12-25T16:18:00.776Z,3.60
2022-12-25T16:20:27.987Z,7.27
2022-12-25T16:22:55.369Z,10.87
2022-12-25T16:25:23.391Z,7.70
2022-12-25T16:27:50.541Z,7.77
2022-12-25T16:30:18.692Z,4.30
2022-12-25T16:32:49.210Z,5.00
2022-12-25T16:35:17.621Z,4.93
2022-12-25T16:37:44.829Z,4.07
2022-12-25T16:40:12.224Z,4.00
2022-12-25T16:42:40.517Z,4.70
2022-12-25T16:45:08.120Z,4.13
2022-12-25T16:47:35.435Z,3.80
2022-12-25T16:50:04.124Z,4.30
2022-12-25T16:52:33.080Z,3.73
2022-12-25T16:55:00.768Z,47.10
2022-12-25T16:57:28.372Z,37.67
2022-12-25T16:59:55.578Z,6.50
2022-12-25T17:02:23.063Z,5.00
2022-12-25T17:04:50.511Z,4.87
2022-12-25T17:07:18.103Z,4.30
2022-12-25T17:09:48.719Z,4.70
2022-12-25T17:12:16.745Z,4.40
2022-12-25T17:14:44.180Z,4.57
2022-12-25T17:17:11.385Z,4.50
2022-12-25T17:19:38.694Z,5.10
2022-12-25T17:22:07.243Z,5.60
2022-12-25T17:24:36.251Z,4.87
2022-12-25T17:27:03.764Z,5.13
2022-12-25T17:29:31.956Z,5.27
2022-12-25T17:31:59.204Z,6.60
2022-12-25T17:34:26.412Z,6.13
2022-12-25T17:36:54.402Z,5.80
2022-12-25T17:39:21.563Z,8.30
2022-12-25T17:41:51.592Z,8.10
2022-12-25T17:44:21.026Z,7.00
2022-12-25T17:46:48.792Z,6.53
2022-12-25T17:49:21.369Z,7.43
2022-12-25T17:51:48.722Z,6.30
2022-12-25T17:54:16.097Z,5.87
2022-12-25T17:56:43.284Z,7.20
2022-12-25T17:59:17.915Z,6.00
2022-12-25T18:01:46.512Z,7.73
2022-12-25T18:04:13.981Z,7.43
2022-12-25T18:06:41.521Z,7.00
2022-12-25T18:09:11.001Z,7.17
2022-12-25T18:11:41.095Z,5.70
2022-12-25T18:14:11.873Z,8.80
2022-12-25T18:16:43.124Z,7.00
2022-12-25T18:19:10.986Z,6.20
2022-12-25T18:21:38.557Z,5.93
2022-12-25T18:24:07.265Z,6.20
2022-12-25T18:26:34.837Z,5.27
2022-12-25T18:29:03.097Z,9.10
2022-12-25T18:31:30.611Z,5.77
2022-12-25T18:33:58.782Z,4.80
2022-12-25T18:36:27.801Z,5.13
2022-12-25T18:38:56.217Z,5.03
2022-12-25T18:41:23.542Z,4.30
2022-12-25T18:43:52.877Z,4.33
2022-12-25T18:46:27.374Z,5.30
2022-12-25T18:48:56.700Z,5.43
2022-12-25T18:51:24.434Z,5.40
2022-12-25T18:53:51.824Z,5.17
2022-12-25T18:56:20.237Z,5.10
2022-12-25T18:58:47.933Z,5.50
2022-12-25T19:01:18.715Z,5.67
2022-12-25T19:03:51.265Z,6.20
2022-12-25T19:06:23.852Z,6.43
2022-12-25T19:08:51.603Z,6.30
2022-12-25T19:11:19.634Z,7.00
2022-12-25T19:13:46.964Z,7.90
2022-12-25T19:16:14.655Z,8.10
2022-12-25T19:18:42.930Z,7.77
2022-12-25T19:21:10.343Z,7.60
2022-12-25T19:23:38.372Z,7.53
2022-12-25T19:26:07.685Z,7.83
2022-12-25T19:28:35.555Z,7.30
2022-12-25T19:31:07.237Z,5.70
2022-12-25T19:33:36.503Z,5.97
2022-12-25T19:36:06.838Z,4.60
2022-12-25T19:38:34.220Z,3.33
2022-12-25T19:41:13.624Z,3.60
2022-12-25T19:43:42.107Z,3.03
2022-12-25T19:46:18.905Z,3.00
2022-12-25T19:48:46.522Z,5.70
2022-12-25T19:51:28.853Z,2.60
2022-12-25T19:53:56.365Z,2.50
2022-12-25T19:56:25.219Z,2.87
2022-12-25T19:58:52.624Z,4.17
2022-12-25T20:01:21.828Z,2.70
2022-12-25T20:03:49.468Z,3.70
2022-12-25T20:06:22.012Z,3.20
2022-12-25T20:08:52.589Z,2.87
2022-12-25T20:11:20.996Z,3.33
2022-12-25T20:13:48.546Z,3.20
2022-12-25T20:16:15.781Z,3.90
2022-12-25T20:18:43.198Z,2.70
2022-12-25T20:21:17.736Z,2.97
2022-12-25T20:23:47.144Z,2.60
2022-12-25T20:26:16.353Z,2.50
2022-12-25T20:28:44.353Z,2.20
2022-12-25T20:31:24.112Z,2.13
2022-12-25T20:33:51.436Z,2.23
2022-12-25T20:36:18.810Z,1.90
2022-12-25T20:38:46.072Z,2.47
2022-12-25T20:41:27.763Z,2.07
2022-12-25T20:43:56.253Z,3.73
2022-12-25T20:46:24.637Z,3.50
2022-12-25T20:48:52.787Z,3.23
2022-12-25T20:51:23.067Z,2.53
2022-12-25T20:53:50.435Z,2.20
2022-12-25T20:56:19.996Z,2.53
2022-12-25T20:58:47.253Z,2.37
2022-12-25T21:01:17.310Z,2.90
2022-12-25T21:03:45.330Z,2.50
2022-12-25T21:06:12.716Z,2.57
2022-12-25T21:08:43.535Z,3.40
2022-12-25T21:11:11.061Z,2.73
2022-12-25T21:13:40.803Z,2.60
2022-12-25T21:16:10.864Z,2.57
2022-12-25T21:18:38.594Z,2.43
2022-12-25T21:21:07.574Z,2.80
2022-12-25T21:23:37.700Z,2.50
2022-12-25T21:26:19.013Z,2.60
2022-12-25T21:28:48.404Z,2.90
2022-12-25T21:31:15.893Z,2.90
2022-12-25T21:33:52.447Z,3.00
2022-12-25T21:36:27.121Z,2.73
2022-12-25T21:38:57.459Z,5.43
2022-12-25T21:41:25.640Z,2.60
2022-12-25T21:43:54.871Z,3.70
2022-12-25T21:46:22.591Z,2.70
2022-12-25T21:48:50.352Z,3.53
2022-12-25T21:51:39.816Z,2.40
2022-12-25T21:54:07.775Z,2.40
2022-12-25T21:56:43.618Z,2.30
2022-12-25T21:59:17.331Z,2.13
2022-12-25T22:01:45.419Z,2.17
2022-12-25T22:04:14.920Z,2.23
2022-12-25T22:07:01.845Z,2.43
2022-12-25T22:09:29.563Z,2.33
2022-12-25T22:12:16.662Z,2.50
2022-12-25T22:14:54.832Z,2.27
2022-12-25T22:17:44.808Z,2.50
2022-12-25T22:20:15.784Z,2.20
2022-12-25T22:22:43.544Z,2.97
2022-12-25T22:25:11.799Z,2.40
2022-12-25T22:27:40.307Z,2.67
2022-12-25T22:30:13.928Z,2.47
2022-12-25T22:32:41.487Z,2.30
2022-12-25T22:35:09.638Z,3.27
2022-12-25T22:37:38.580Z,2.60
2022-12-25T22:40:06.751Z,3.80
2022-12-25T22:42:34.756Z,3.00
2022-12-25T22:45:02.351Z,1.93
2022-12-25T22:47:29.704Z,2.10
2022-12-25T22:49:56.959Z,2.10
2022-12-25T22:52:24.178Z,1.97
2022-12-25T22:54:51.329Z,2.00
2022-12-25T22:57:18.591Z,2.90
2022-12-25T22:59:46.657Z,2.40
2022-12-25T23:02:18.310Z,2.40
2022-12-25T23:04:45.567Z,2.63
2022-12-25T23:07:14.281Z,2.63
2022-12-25T23:09:43.029Z,3.37
2022-12-25T23:12:37.469Z,2.03
2022-12-25T23:15:05.238Z,2.40
2022-12-25T23:18:01.587Z,2.13
2022-12-25T23:20:47.641Z,4.03
2022-12-25T23:23:34.825Z,2.80
2022-12-25T23:26:09.205Z,2.30
2022-12-25T23:29:00.103Z,2.30
2022-12-25T23:31:31.522Z,2.63
2022-12-25T23:33:59.411Z,2.60
2022-12-25T23:36:27.879Z,2.40
2022-12-25T23:38:55.085Z,2.23
2022-12-25T23:41:22.596Z,2.00
2022-12-25T23:43:49.855Z,2.10
2022-12-25T23:46:17.323Z,2.00
2022-12-25T23:48:44.559Z,2.20
2022-12-25T23:51:12.160Z,2.30
2022-12-25T23:53:39.368Z,2.23
2022-12-25T23:56:06.794Z,2.17
2022-12-25T23:58:34.010Z,2.10
